In Rescue
 
Open Full Screen Window  High Contrast Mode
Wind Gusting 15 knots
09
November 29, 2022 9:13 AM EST
Weather Information
Wind Direction
  160 °
Wind Speed
  09 kt (10 mph)
Wind Gust
  15 kt (17 mph)
Altimeter
29.91 in
Visibility
10 SM
Temperature
02° C
36° F
Dewpoint
-01° C
30° F
Humidity
81%
1hr Rain Fall
00.00 in.
24hr Rain Fall
00.00 in.
Sky Condition
Clear
VFR

METAR KMCD 291413Z AUTO 16009G15KT 10SM CLR 02/M01 A2991 RMK AO2 T00211006

FAA Disclaimer: The data displayed is for advisory purposes only and is not to be used for flight planning or operations.